Airport View

Enter AWOS ICAO identifier for current METAR.

ex. KFNL

CYCD 031700Z 12004KT 10SM -RA FEW003 BKN008 OVC020 13/12 A3004 RMK SF2SF4SC2 VIS LWR S-SW SLP176

3 Jul 2020 17:27

Other Area AWOS: CWEL - CWGB - CWVF - CYVR

TAF AMD CYCD 031625Z 0316/0403 VRB03KT P6SM SCT008 OVC020 TEMPO 0316/0320 5SM -RA BR FEW003 BKN008 OVC020 FM032000 14006KT P6SM SCT020 OVC050 TEMPO 0320/0403 5SM -RA BR SCT010 BKN020 OVC050 RMK NXT FCST BY 031800Z